sensor_id;sensor_type;location;lat;lon;timestamp;P1;durP1;ratioP1;P2;durP2;ratioP2
47153;SDS011;32907;41.412;2.164;2022-10-16T00:01:42;10.15;;;4.05;;
47153;SDS011;32907;41.412;2.164;2022-10-16T00:04:10;7.80;;;3.70;;
47153;SDS011;32907;41.412;2.164;2022-10-16T00:06:38;7.00;;;3.80;;
47153;SDS011;32907;41.412;2.164;2022-10-16T00:09:06;5.45;;;3.00;;
47153;SDS011;32907;41.412;2.164;2022-10-16T00:11:35;5.53;;;3.55;;
47153;SDS011;32907;41.412;2.164;2022-10-16T00:14:06;5.32;;;3.50;;
47153;SDS011;32907;41.412;2.164;2022-10-16T00:16:35;4.70;;;3.40;;
47153;SDS011;32907;41.412;2.164;2022-10-16T00:19:03;6.00;;;3.60;;
47153;SDS011;32907;41.412;2.164;2022-10-16T00:21:32;7.57;;;4.38;;
47153;SDS011;32907;41.412;2.164;2022-10-16T00:24:19;5.78;;;4.30;;
47153;SDS011;32907;41.412;2.164;2022-10-16T00:26:49;6.97;;;3.88;;
47153;SDS011;32907;41.412;2.164;2022-10-16T00:29:16;5.07;;;3.70;;
47153;SDS011;32907;41.412;2.164;2022-10-16T00:31:44;5.28;;;3.50;;
47153;SDS011;32907;41.412;2.164;2022-10-16T00:34:12;5.40;;;3.63;;
47153;SDS011;32907;41.412;2.164;2022-10-16T00:36:40;5.82;;;3.28;;
47153;SDS011;32907;41.412;2.164;2022-10-16T00:39:08;5.15;;;3.15;;
47153;SDS011;32907;41.412;2.164;2022-10-16T00:41:36;4.68;;;3.45;;
47153;SDS011;32907;41.412;2.164;2022-10-16T00:44:40;6.22;;;3.17;;
47153;SDS011;32907;41.412;2.164;2022-10-16T00:47:10;5.55;;;3.10;;
47153;SDS011;32907;41.412;2.164;2022-10-16T00:49:42;4.60;;;2.80;;
47153;SDS011;32907;41.412;2.164;2022-10-16T00:52:09;4.75;;;2.90;;
47153;SDS011;32907;41.412;2.164;2022-10-16T00:54:38;4.03;;;2.45;;
47153;SDS011;32907;41.412;2.164;2022-10-16T00:57:06;4.25;;;2.67;;
47153;SDS011;32907;41.412;2.164;2022-10-16T00:59:35;4.45;;;2.70;;
47153;SDS011;32907;41.412;2.164;2022-10-16T01:02:06;2.63;;;2.25;;
47153;SDS011;32907;41.412;2.164;2022-10-16T01:04:39;5.05;;;3.03;;
47153;SDS011;32907;41.412;2.164;2022-10-16T01:07:12;5.57;;;2.80;;
47153;SDS011;32907;41.412;2.164;2022-10-16T01:15:24;4.47;;;2.90;;
47153;SDS011;32907;41.412;2.164;2022-10-16T01:20:52;4.82;;;3.47;;
47153;SDS011;32907;41.412;2.164;2022-10-16T01:28:51;5.25;;;3.65;;
47153;SDS011;32907;41.412;2.164;2022-10-16T01:31:29;6.85;;;3.90;;
47153;SDS011;32907;41.412;2.164;2022-10-16T01:34:05;4.45;;;3.53;;
47153;SDS011;32907;41.412;2.164;2022-10-16T01:36:39;6.43;;;3.80;;
47153;SDS011;32907;41.412;2.164;2022-10-16T01:39:14;6.32;;;3.78;;
47153;SDS011;32907;41.412;2.164;2022-10-16T01:41:49;6.72;;;3.80;;
47153;SDS011;32907;41.412;2.164;2022-10-16T01:44:25;7.45;;;3.90;;
47153;SDS011;32907;41.412;2.164;2022-10-16T01:46:56;9.80;;;5.10;;
47153;SDS011;32907;41.412;2.164;2022-10-16T01:49:25;7.30;;;4.22;;
47153;SDS011;32907;41.412;2.164;2022-10-16T01:51:57;6.88;;;4.47;;
47153;SDS011;32907;41.412;2.164;2022-10-16T01:54:27;7.63;;;4.70;;
47153;SDS011;32907;41.412;2.164;2022-10-16T01:56:58;5.68;;;4.20;;
47153;SDS011;32907;41.412;2.164;2022-10-16T01:59:27;8.95;;;4.80;;
47153;SDS011;32907;41.412;2.164;2022-10-16T02:01:59;7.53;;;4.32;;
47153;SDS011;32907;41.412;2.164;2022-10-16T02:04:32;6.30;;;4.50;;
47153;SDS011;32907;41.412;2.164;2022-10-16T02:07:03;6.85;;;4.57;;
47153;SDS011;32907;41.412;2.164;2022-10-16T02:09:33;9.77;;;5.15;;
47153;SDS011;32907;41.412;2.164;2022-10-16T02:12:05;8.30;;;5.10;;
47153;SDS011;32907;41.412;2.164;2022-10-16T02:14:37;8.52;;;5.25;;
47153;SDS011;32907;41.412;2.164;2022-10-16T02:17:11;6.35;;;4.90;;
47153;SDS011;32907;41.412;2.164;2022-10-16T02:19:41;7.75;;;4.88;;
47153;SDS011;32907;41.412;2.164;2022-10-16T02:22:15;8.85;;;4.88;;
47153;SDS011;32907;41.412;2.164;2022-10-16T02:24:51;7.05;;;4.90;;
47153;SDS011;32907;41.412;2.164;2022-10-16T02:35:26;6.50;;;4.43;;
47153;SDS011;32907;41.412;2.164;2022-10-16T02:37:55;7.22;;;4.20;;
47153;SDS011;32907;41.412;2.164;2022-10-16T02:40:24;6.60;;;4.30;;
47153;SDS011;32907;41.412;2.164;2022-10-16T02:42:54;6.32;;;4.07;;
47153;SDS011;32907;41.412;2.164;2022-10-16T02:45:22;7.00;;;4.40;;
47153;SDS011;32907;41.412;2.164;2022-10-16T02:47:50;6.38;;;3.55;;
47153;SDS011;32907;41.412;2.164;2022-10-16T02:50:18;8.80;;;3.45;;
47153;SDS011;32907;41.412;2.164;2022-10-16T02:52:46;7.30;;;3.70;;
47153;SDS011;32907;41.412;2.164;2022-10-16T02:55:14;4.93;;;3.55;;
47153;SDS011;32907;41.412;2.164;2022-10-16T02:57:42;5.65;;;3.20;;
47153;SDS011;32907;41.412;2.164;2022-10-16T03:00:11;5.50;;;3.25;;
47153;SDS011;32907;41.412;2.164;2022-10-16T03:02:41;4.63;;;3.55;;
47153;SDS011;32907;41.412;2.164;2022-10-16T03:05:09;6.53;;;3.63;;
47153;SDS011;32907;41.412;2.164;2022-10-16T03:07:38;4.50;;;3.13;;
47153;SDS011;32907;41.412;2.164;2022-10-16T03:10:06;3.95;;;3.17;;
47153;SDS011;32907;41.412;2.164;2022-10-16T03:12:34;5.20;;;3.25;;
47153;SDS011;32907;41.412;2.164;2022-10-16T03:15:02;5.53;;;3.08;;
47153;SDS011;32907;41.412;2.164;2022-10-16T03:17:31;6.50;;;3.17;;
47153;SDS011;32907;41.412;2.164;2022-10-16T03:19:59;6.90;;;3.22;;
47153;SDS011;32907;41.412;2.164;2022-10-16T03:22:27;4.78;;;3.10;;
47153;SDS011;32907;41.412;2.164;2022-10-16T03:24:55;4.05;;;2.80;;
47153;SDS011;32907;41.412;2.164;2022-10-16T03:27:22;5.30;;;3.15;;
47153;SDS011;32907;41.412;2.164;2022-10-16T03:29:51;3.95;;;2.45;;
47153;SDS011;32907;41.412;2.164;2022-10-16T03:32:19;5.63;;;3.05;;
47153;SDS011;32907;41.412;2.164;2022-10-16T03:34:47;4.97;;;3.10;;
47153;SDS011;32907;41.412;2.164;2022-10-16T03:37:15;4.28;;;2.95;;
47153;SDS011;32907;41.412;2.164;2022-10-16T03:39:43;4.05;;;2.55;;
47153;SDS011;32907;41.412;2.164;2022-10-16T03:42:10;4.45;;;3.00;;
47153;SDS011;32907;41.412;2.164;2022-10-16T03:44:38;5.53;;;2.85;;
47153;SDS011;32907;41.412;2.164;2022-10-16T03:47:06;5.43;;;2.83;;
47153;SDS011;32907;41.412;2.164;2022-10-16T03:49:34;4.88;;;3.10;;
47153;SDS011;32907;41.412;2.164;2022-10-16T03:52:01;6.13;;;3.28;;
47153;SDS011;32907;41.412;2.164;2022-10-16T03:54:29;5.72;;;3.15;;
47153;SDS011;32907;41.412;2.164;2022-10-16T03:56:57;4.80;;;2.95;;
47153;SDS011;32907;41.412;2.164;2022-10-16T03:59:25;4.25;;;3.17;;
47153;SDS011;32907;41.412;2.164;2022-10-16T04:01:53;6.03;;;2.75;;
47153;SDS011;32907;41.412;2.164;2022-10-16T04:04:21;5.32;;;2.90;;
47153;SDS011;32907;41.412;2.164;2022-10-16T04:06:48;5.00;;;3.03;;
47153;SDS011;32907;41.412;2.164;2022-10-16T04:09:16;5.43;;;2.75;;
47153;SDS011;32907;41.412;2.164;2022-10-16T04:11:44;3.10;;;2.10;;
47153;SDS011;32907;41.412;2.164;2022-10-16T04:14:12;5.93;;;2.67;;
47153;SDS011;32907;41.412;2.164;2022-10-16T04:16:40;5.57;;;2.55;;
47153;SDS011;32907;41.412;2.164;2022-10-16T04:19:09;3.30;;;2.08;;
47153;SDS011;32907;41.412;2.164;2022-10-16T04:21:37;5.10;;;2.50;;
47153;SDS011;32907;41.412;2.164;2022-10-16T04:24:05;4.85;;;2.47;;
47153;SDS011;32907;41.412;2.164;2022-10-16T04:26:33;3.90;;;2.20;;
47153;SDS011;32907;41.412;2.164;2022-10-16T04:29:00;4.55;;;2.20;;
47153;SDS011;32907;41.412;2.164;2022-10-16T04:31:28;6.20;;;2.50;;
47153;SDS011;32907;41.412;2.164;2022-10-16T04:33:56;4.22;;;2.10;;
47153;SDS011;32907;41.412;2.164;2022-10-16T04:36:23;4.20;;;2.10;;
47153;SDS011;32907;41.412;2.164;2022-10-16T04:38:55;2.65;;;2.03;;
47153;SDS011;32907;41.412;2.164;2022-10-16T04:41:23;4.60;;;2.65;;
47153;SDS011;32907;41.412;2.164;2022-10-16T04:43:50;4.20;;;2.30;;
47153;SDS011;32907;41.412;2.164;2022-10-16T04:46:18;5.68;;;3.20;;
47153;SDS011;32907;41.412;2.164;2022-10-16T04:48:46;5.65;;;2.92;;
47153;SDS011;32907;41.412;2.164;2022-10-16T04:51:13;5.22;;;2.97;;
47153;SDS011;32907;41.412;2.164;2022-10-16T04:53:41;6.35;;;3.60;;
47153;SDS011;32907;41.412;2.164;2022-10-16T04:56:09;9.13;;;4.78;;
47153;SDS011;32907;41.412;2.164;2022-10-16T04:58:37;27.02;;;15.52;;
47153;SDS011;32907;41.412;2.164;2022-10-16T05:01:04;51.15;;;27.67;;
47153;SDS011;32907;41.412;2.164;2022-10-16T05:03:32;68.68;;;36.20;;
47153;SDS011;32907;41.412;2.164;2022-10-16T05:06:00;58.85;;;31.70;;
47153;SDS011;32907;41.412;2.164;2022-10-16T05:08:27;45.50;;;23.60;;
47153;SDS011;32907;41.412;2.164;2022-10-16T05:10:55;33.97;;;18.70;;
47153;SDS011;32907;41.412;2.164;2022-10-16T05:13:23;39.58;;;22.52;;
47153;SDS011;32907;41.412;2.164;2022-10-16T05:15:51;33.08;;;18.42;;
47153;SDS011;32907;41.412;2.164;2022-10-16T05:18:19;39.95;;;19.55;;
47153;SDS011;32907;41.412;2.164;2022-10-16T05:20:46;44.78;;;23.98;;
47153;SDS011;32907;41.412;2.164;2022-10-16T05:23:14;42.35;;;21.98;;
47153;SDS011;32907;41.412;2.164;2022-10-16T05:25:42;32.28;;;16.90;;
47153;SDS011;32907;41.412;2.164;2022-10-16T05:28:09;25.35;;;13.07;;
47153;SDS011;32907;41.412;2.164;2022-10-16T05:30:37;17.80;;;9.75;;
47153;SDS011;32907;41.412;2.164;2022-10-16T05:33:07;27.25;;;13.55;;
47153;SDS011;32907;41.412;2.164;2022-10-16T05:35:34;32.92;;;17.08;;
47153;SDS011;32907;41.412;2.164;2022-10-16T05:38:02;30.33;;;15.95;;
47153;SDS011;32907;41.412;2.164;2022-10-16T05:40:30;34.60;;;19.60;;
47153;SDS011;32907;41.412;2.164;2022-10-16T05:42:57;28.88;;;15.75;;
47153;SDS011;32907;41.412;2.164;2022-10-16T05:45:25;20.08;;;10.98;;
47153;SDS011;32907;41.412;2.164;2022-10-16T05:47:53;18.88;;;9.43;;
47153;SDS011;32907;41.412;2.164;2022-10-16T05:50:20;22.27;;;11.10;;
47153;SDS011;32907;41.412;2.164;2022-10-16T05:52:48;20.23;;;11.02;;
47153;SDS011;32907;41.412;2.164;2022-10-16T05:55:16;19.90;;;10.95;;
47153;SDS011;32907;41.412;2.164;2022-10-16T05:57:44;16.33;;;8.50;;
47153;SDS011;32907;41.412;2.164;2022-10-16T06:00:14;14.93;;;8.02;;
47153;SDS011;32907;41.412;2.164;2022-10-16T06:02:42;13.73;;;6.90;;
47153;SDS011;32907;41.412;2.164;2022-10-16T06:05:10;13.32;;;7.15;;
47153;SDS011;32907;41.412;2.164;2022-10-16T06:07:37;12.10;;;7.53;;
47153;SDS011;32907;41.412;2.164;2022-10-16T06:10:05;11.57;;;7.03;;
47153;SDS011;32907;41.412;2.164;2022-10-16T06:12:33;18.50;;;9.18;;
47153;SDS011;32907;41.412;2.164;2022-10-16T06:15:01;17.33;;;9.07;;
47153;SDS011;32907;41.412;2.164;2022-10-16T06:17:29;12.02;;;7.63;;
47153;SDS011;32907;41.412;2.164;2022-10-16T06:19:57;9.38;;;6.05;;
47153;SDS011;32907;41.412;2.164;2022-10-16T06:22:24;10.65;;;6.22;;
47153;SDS011;32907;41.412;2.164;2022-10-16T06:24:52;12.57;;;6.30;;
47153;SDS011;32907;41.412;2.164;2022-10-16T06:27:20;10.35;;;5.63;;
47153;SDS011;32907;41.412;2.164;2022-10-16T06:29:48;11.38;;;5.13;;
47153;SDS011;32907;41.412;2.164;2022-10-16T06:32:15;7.63;;;4.95;;
47153;SDS011;32907;41.412;2.164;2022-10-16T06:34:44;9.73;;;4.28;;
47153;SDS011;32907;41.412;2.164;2022-10-16T06:37:12;9.52;;;4.95;;
47153;SDS011;32907;41.412;2.164;2022-10-16T06:39:40;9.63;;;5.70;;
47153;SDS011;32907;41.412;2.164;2022-10-16T06:42:08;9.68;;;5.82;;
47153;SDS011;32907;41.412;2.164;2022-10-16T06:44:35;9.45;;;6.15;;
47153;SDS011;32907;41.412;2.164;2022-10-16T06:47:03;8.60;;;5.55;;
47153;SDS011;32907;41.412;2.164;2022-10-16T06:49:32;6.13;;;4.00;;
47153;SDS011;32907;41.412;2.164;2022-10-16T06:51:59;7.43;;;4.03;;
47153;SDS011;32907;41.412;2.164;2022-10-16T06:54:28;9.07;;;3.88;;
47153;SDS011;32907;41.412;2.164;2022-10-16T06:56:56;8.00;;;3.92;;
47153;SDS011;32907;41.412;2.164;2022-10-16T06:59:24;5.07;;;4.00;;
47153;SDS011;32907;41.412;2.164;2022-10-16T07:01:51;8.48;;;3.67;;
47153;SDS011;32907;41.412;2.164;2022-10-16T07:04:19;8.95;;;4.60;;
47153;SDS011;32907;41.412;2.164;2022-10-16T07:06:47;8.02;;;5.47;;
47153;SDS011;32907;41.412;2.164;2022-10-16T07:09:14;9.15;;;5.22;;
47153;SDS011;32907;41.412;2.164;2022-10-16T07:11:42;11.75;;;5.70;;
47153;SDS011;32907;41.412;2.164;2022-10-16T07:14:14;11.35;;;4.80;;
47153;SDS011;32907;41.412;2.164;2022-10-16T07:16:44;6.85;;;3.72;;
47153;SDS011;32907;41.412;2.164;2022-10-16T07:19:11;6.78;;;3.78;;
47153;SDS011;32907;41.412;2.164;2022-10-16T07:21:41;6.20;;;4.15;;
47153;SDS011;32907;41.412;2.164;2022-10-16T07:24:14;6.05;;;3.63;;
47153;SDS011;32907;41.412;2.164;2022-10-16T07:26:43;6.53;;;3.75;;
47153;SDS011;32907;41.412;2.164;2022-10-16T07:29:17;7.68;;;4.30;;
47153;SDS011;32907;41.412;2.164;2022-10-16T07:31:46;7.03;;;4.35;;
47153;SDS011;32907;41.412;2.164;2022-10-16T07:34:16;8.60;;;4.80;;
47153;SDS011;32907;41.412;2.164;2022-10-16T07:36:47;7.72;;;4.70;;
47153;SDS011;32907;41.412;2.164;2022-10-16T07:39:16;7.03;;;5.03;;
47153;SDS011;32907;41.412;2.164;2022-10-16T07:41:44;9.52;;;4.95;;
47153;SDS011;32907;41.412;2.164;2022-10-16T07:44:12;9.23;;;6.07;;
47153;SDS011;32907;41.412;2.164;2022-10-16T07:46:40;7.95;;;5.78;;
47153;SDS011;32907;41.412;2.164;2022-10-16T07:49:08;8.40;;;6.00;;
47153;SDS011;32907;41.412;2.164;2022-10-16T07:51:36;7.95;;;5.88;;
47153;SDS011;32907;41.412;2.164;2022-10-16T07:54:05;7.68;;;4.65;;
47153;SDS011;32907;41.412;2.164;2022-10-16T07:56:33;9.88;;;5.93;;
47153;SDS011;32907;41.412;2.164;2022-10-16T07:59:02;9.52;;;5.82;;
47153;SDS011;32907;41.412;2.164;2022-10-16T08:01:30;10.15;;;6.35;;
47153;SDS011;32907;41.412;2.164;2022-10-16T08:03:58;8.52;;;6.38;;
47153;SDS011;32907;41.412;2.164;2022-10-16T08:06:25;8.25;;;6.40;;
47153;SDS011;32907;41.412;2.164;2022-10-16T08:08:55;10.93;;;7.15;;
47153;SDS011;32907;41.412;2.164;2022-10-16T08:11:23;10.02;;;6.70;;
47153;SDS011;32907;41.412;2.164;2022-10-16T08:13:51;11.32;;;7.50;;
47153;SDS011;32907;41.412;2.164;2022-10-16T08:16:19;10.57;;;7.10;;
47153;SDS011;32907;41.412;2.164;2022-10-16T08:18:47;16.83;;;7.00;;
47153;SDS011;32907;41.412;2.164;2022-10-16T08:21:16;14.32;;;7.20;;
47153;SDS011;32907;41.412;2.164;2022-10-16T08:23:48;13.50;;;7.32;;
47153;SDS011;32907;41.412;2.164;2022-10-16T08:26:24;12.77;;;7.03;;
47153;SDS011;32907;41.412;2.164;2022-10-16T08:28:53;10.05;;;6.50;;
47153;SDS011;32907;41.412;2.164;2022-10-16T08:31:21;10.57;;;5.70;;
47153;SDS011;32907;41.412;2.164;2022-10-16T08:33:49;9.32;;;5.70;;
47153;SDS011;32907;41.412;2.164;2022-10-16T08:36:17;10.07;;;4.47;;
47153;SDS011;32907;41.412;2.164;2022-10-16T08:38:47;6.43;;;4.18;;
47153;SDS011;32907;41.412;2.164;2022-10-16T08:49:33;9.52;;;5.22;;
47153;SDS011;32907;41.412;2.164;2022-10-16T08:52:02;11.18;;;5.88;;
47153;SDS011;32907;41.412;2.164;2022-10-16T08:54:43;6.35;;;4.75;;
47153;SDS011;32907;41.412;2.164;2022-10-16T08:57:21;9.82;;;4.68;;
47153;SDS011;32907;41.412;2.164;2022-10-16T08:59:51;6.97;;;4.28;;
47153;SDS011;32907;41.412;2.164;2022-10-16T09:02:32;9.85;;;6.20;;
47153;SDS011;32907;41.412;2.164;2022-10-16T09:08:44;9.15;;;4.25;;
47153;SDS011;32907;41.412;2.164;2022-10-16T09:10:58;7.00;;;4.40;;
47153;SDS011;32907;41.412;2.164;2022-10-16T09:21:26;21.35;;;7.18;;
47153;SDS011;32907;41.412;2.164;2022-10-16T09:26:41;8.02;;;5.22;;
47153;SDS011;32907;41.412;2.164;2022-10-16T09:29:17;7.82;;;4.63;;
47153;SDS011;32907;41.412;2.164;2022-10-16T09:31:48;7.32;;;4.40;;
47153;SDS011;32907;41.412;2.164;2022-10-16T09:34:25;10.95;;;5.60;;
47153;SDS011;32907;41.412;2.164;2022-10-16T09:36:59;11.70;;;5.88;;
47153;SDS011;32907;41.412;2.164;2022-10-16T09:39:28;7.95;;;5.13;;
47153;SDS011;32907;41.412;2.164;2022-10-16T09:41:56;8.13;;;5.28;;
47153;SDS011;32907;41.412;2.164;2022-10-16T09:47:02;5.88;;;4.68;;
47153;SDS011;32907;41.412;2.164;2022-10-16T09:49:32;6.25;;;3.85;;
47153;SDS011;32907;41.412;2.164;2022-10-16T09:52:13;4.88;;;3.40;;
47153;SDS011;32907;41.412;2.164;2022-10-16T09:54:49;5.25;;;3.20;;
47153;SDS011;32907;41.412;2.164;2022-10-16T09:57:22;5.45;;;3.55;;
47153;SDS011;32907;41.412;2.164;2022-10-16T09:59:52;6.95;;;3.53;;
47153;SDS011;32907;41.412;2.164;2022-10-16T10:02:33;6.22;;;4.15;;
47153;SDS011;32907;41.412;2.164;2022-10-16T10:05:13;7.60;;;3.97;;
47153;SDS011;32907;41.412;2.164;2022-10-16T10:07:51;7.63;;;4.10;;
47153;SDS011;32907;41.412;2.164;2022-10-16T10:10:28;10.85;;;4.90;;
47153;SDS011;32907;41.412;2.164;2022-10-16T10:12:57;5.20;;;3.80;;
47153;SDS011;32907;41.412;2.164;2022-10-16T10:15:26;9.20;;;4.65;;
47153;SDS011;32907;41.412;2.164;2022-10-16T10:18:00;9.15;;;5.72;;
47153;SDS011;32907;41.412;2.164;2022-10-16T10:20:32;7.85;;;4.60;;
47153;SDS011;32907;41.412;2.164;2022-10-16T10:23:15;4.50;;;3.55;;
47153;SDS011;32907;41.412;2.164;2022-10-16T10:28:49;4.75;;;3.45;;
47153;SDS011;32907;41.412;2.164;2022-10-16T10:34:21;9.02;;;3.95;;
47153;SDS011;32907;41.412;2.164;2022-10-16T10:40:08;9.27;;;4.03;;
47153;SDS011;32907;41.412;2.164;2022-10-16T10:43:04;6.63;;;4.05;;
47153;SDS011;32907;41.412;2.164;2022-10-16T10:46:02;8.90;;;4.00;;
47153;SDS011;32907;41.412;2.164;2022-10-16T10:54:17;15.02;;;7.45;;
47153;SDS011;32907;41.412;2.164;2022-10-16T10:57:25;16.45;;;6.60;;
47153;SDS011;32907;41.412;2.164;2022-10-16T11:02:55;11.93;;;5.28;;
47153;SDS011;32907;41.412;2.164;2022-10-16T11:10:40;9.20;;;5.35;;
47153;SDS011;32907;41.412;2.164;2022-10-16T11:16:24;6.72;;;4.30;;
47153;SDS011;32907;41.412;2.164;2022-10-16T11:19:18;5.82;;;4.35;;
47153;SDS011;32907;41.412;2.164;2022-10-16T11:22:20;9.63;;;4.75;;
47153;SDS011;32907;41.412;2.164;2022-10-16T11:25:00;9.32;;;5.05;;
47153;SDS011;32907;41.412;2.164;2022-10-16T11:27:39;9.48;;;5.28;;
47153;SDS011;32907;41.412;2.164;2022-10-16T11:33:04;6.43;;;4.53;;
47153;SDS011;32907;41.412;2.164;2022-10-16T11:40:58;12.50;;;5.77;;
47153;SDS011;32907;41.412;2.164;2022-10-16T11:43:35;16.77;;;7.20;;
47153;SDS011;32907;41.412;2.164;2022-10-16T11:46:15;12.77;;;5.45;;
47153;SDS011;32907;41.412;2.164;2022-10-16T11:51:36;8.63;;;4.53;;
47153;SDS011;32907;41.412;2.164;2022-10-16T11:54:14;10.30;;;4.45;;
47153;SDS011;32907;41.412;2.164;2022-10-16T11:56:52;9.05;;;4.20;;
47153;SDS011;32907;41.412;2.164;2022-10-16T11:59:33;7.75;;;3.97;;
47153;SDS011;32907;41.412;2.164;2022-10-16T12:02:23;8.15;;;4.18;;
47153;SDS011;32907;41.412;2.164;2022-10-16T12:07:57;7.25;;;3.80;;
47153;SDS011;32907;41.412;2.164;2022-10-16T12:10:41;10.93;;;4.55;;
47153;SDS011;32907;41.412;2.164;2022-10-16T12:18:48;6.55;;;3.75;;
47153;SDS011;32907;41.412;2.164;2022-10-16T12:21:16;7.03;;;3.38;;
47153;SDS011;32907;41.412;2.164;2022-10-16T12:26:25;6.53;;;3.22;;
47153;SDS011;32907;41.412;2.164;2022-10-16T12:28:55;11.43;;;4.07;;
47153;SDS011;32907;41.412;2.164;2022-10-16T12:31:25;16.30;;;5.70;;
47153;SDS011;32907;41.412;2.164;2022-10-16T12:34:28;17.95;;;6.57;;
47153;SDS011;32907;41.412;2.164;2022-10-16T12:36:55;16.38;;;8.95;;
47153;SDS011;32907;41.412;2.164;2022-10-16T12:39:37;15.73;;;9.02;;
47153;SDS011;32907;41.412;2.164;2022-10-16T12:42:51;16.92;;;8.60;;
47153;SDS011;32907;41.412;2.164;2022-10-16T12:44:54;13.90;;;7.53;;
47153;SDS011;32907;41.412;2.164;2022-10-16T12:50:33;9.82;;;5.38;;
47153;SDS011;32907;41.412;2.164;2022-10-16T12:53:25;12.40;;;4.73;;
47153;SDS011;32907;41.412;2.164;2022-10-16T13:03:44;10.00;;;4.50;;
47153;SDS011;32907;41.412;2.164;2022-10-16T13:20:12;7.47;;;4.78;;
47153;SDS011;32907;41.412;2.164;2022-10-16T13:25:49;7.45;;;3.50;;
47153;SDS011;32907;41.412;2.164;2022-10-16T13:28:47;9.20;;;3.65;;
47153;SDS011;32907;41.412;2.164;2022-10-16T13:31:20;6.10;;;2.83;;
47153;SDS011;32907;41.412;2.164;2022-10-16T13:33:52;8.13;;;2.70;;
47153;SDS011;32907;41.412;2.164;2022-10-16T13:36:24;6.32;;;3.05;;
47153;SDS011;32907;41.412;2.164;2022-10-16T13:41:41;6.88;;;2.75;;
47153;SDS011;32907;41.412;2.164;2022-10-16T13:44:17;6.93;;;3.00;;
47153;SDS011;32907;41.412;2.164;2022-10-16T13:46:47;8.48;;;2.70;;
47153;SDS011;32907;41.412;2.164;2022-10-16T13:49:26;7.97;;;3.00;;
47153;SDS011;32907;41.412;2.164;2022-10-16T13:51:58;5.47;;;2.78;;
47153;SDS011;32907;41.412;2.164;2022-10-16T13:54:27;9.30;;;3.50;;
47153;SDS011;32907;41.412;2.164;2022-10-16T13:57:04;5.65;;;2.45;;
47153;SDS011;32907;41.412;2.164;2022-10-16T13:59:52;7.00;;;2.55;;
47153;SDS011;32907;41.412;2.164;2022-10-16T14:04:58;12.48;;;5.53;;
47153;SDS011;32907;41.412;2.164;2022-10-16T14:07:28;11.85;;;6.20;;
47153;SDS011;32907;41.412;2.164;2022-10-16T14:10:03;19.77;;;11.38;;
47153;SDS011;32907;41.412;2.164;2022-10-16T14:12:33;22.30;;;10.68;;
47153;SDS011;32907;41.412;2.164;2022-10-16T14:15:01;16.02;;;8.45;;
47153;SDS011;32907;41.412;2.164;2022-10-16T14:17:31;11.23;;;5.75;;
47153;SDS011;32907;41.412;2.164;2022-10-16T14:20:02;10.63;;;4.55;;
47153;SDS011;32907;41.412;2.164;2022-10-16T14:22:40;10.98;;;5.43;;
47153;SDS011;32907;41.412;2.164;2022-10-16T14:25:30;9.82;;;4.85;;
47153;SDS011;32907;41.412;2.164;2022-10-16T14:28:13;10.07;;;4.57;;
47153;SDS011;32907;41.412;2.164;2022-10-16T14:38:29;6.35;;;3.00;;
47153;SDS011;32907;41.412;2.164;2022-10-16T14:40:58;9.50;;;2.85;;
47153;SDS011;32907;41.412;2.164;2022-10-16T14:43:40;6.63;;;2.92;;
47153;SDS011;32907;41.412;2.164;2022-10-16T14:46:15;13.38;;;3.40;;
47153;SDS011;32907;41.412;2.164;2022-10-16T14:48:48;8.20;;;2.97;;
47153;SDS011;32907;41.412;2.164;2022-10-16T14:51:19;7.18;;;2.05;;
47153;SDS011;32907;41.412;2.164;2022-10-16T14:53:47;6.40;;;2.55;;
47153;SDS011;32907;41.412;2.164;2022-10-16T14:56:19;7.28;;;2.30;;
47153;SDS011;32907;41.412;2.164;2022-10-16T14:58:50;3.88;;;2.15;;
47153;SDS011;32907;41.412;2.164;2022-10-16T15:01:19;8.38;;;2.38;;
47153;SDS011;32907;41.412;2.164;2022-10-16T15:03:47;7.00;;;2.03;;
47153;SDS011;32907;41.412;2.164;2022-10-16T15:06:15;4.07;;;2.25;;
47153;SDS011;32907;41.412;2.164;2022-10-16T15:08:43;6.88;;;2.30;;
47153;SDS011;32907;41.412;2.164;2022-10-16T15:11:15;7.25;;;2.20;;
47153;SDS011;32907;41.412;2.164;2022-10-16T15:13:45;8.13;;;2.80;;
47153;SDS011;32907;41.412;2.164;2022-10-16T15:16:14;4.70;;;1.95;;
47153;SDS011;32907;41.412;2.164;2022-10-16T15:18:43;5.13;;;2.10;;
47153;SDS011;32907;41.412;2.164;2022-10-16T15:21:20;4.93;;;2.00;;
47153;SDS011;32907;41.412;2.164;2022-10-16T15:23:51;7.40;;;2.42;;
47153;SDS011;32907;41.412;2.164;2022-10-16T15:26:19;7.28;;;2.00;;
47153;SDS011;32907;41.412;2.164;2022-10-16T15:28:47;6.15;;;2.28;;
47153;SDS011;32907;41.412;2.164;2022-10-16T15:31:15;5.70;;;2.03;;
47153;SDS011;32907;41.412;2.164;2022-10-16T15:33:42;6.60;;;2.08;;
47153;SDS011;32907;41.412;2.164;2022-10-16T15:36:10;4.57;;;1.63;;
47153;SDS011;32907;41.412;2.164;2022-10-16T15:38:38;7.28;;;1.90;;
47153;SDS011;32907;41.412;2.164;2022-10-16T15:41:06;4.65;;;1.98;;
47153;SDS011;32907;41.412;2.164;2022-10-16T15:43:34;3.03;;;1.42;;
47153;SDS011;32907;41.412;2.164;2022-10-16T15:46:05;6.15;;;2.20;;
47153;SDS011;32907;41.412;2.164;2022-10-16T15:48:37;3.90;;;1.60;;
47153;SDS011;32907;41.412;2.164;2022-10-16T15:51:05;4.53;;;1.95;;
47153;SDS011;32907;41.412;2.164;2022-10-16T15:53:35;5.93;;;2.00;;
47153;SDS011;32907;41.412;2.164;2022-10-16T15:56:05;6.20;;;2.28;;
47153;SDS011;32907;41.412;2.164;2022-10-16T15:58:33;8.48;;;2.60;;
47153;SDS011;32907;41.412;2.164;2022-10-16T16:01:02;7.95;;;2.75;;
47153;SDS011;32907;41.412;2.164;2022-10-16T16:03:31;6.40;;;2.55;;
47153;SDS011;32907;41.412;2.164;2022-10-16T16:06:08;6.95;;;2.67;;
47153;SDS011;32907;41.412;2.164;2022-10-16T16:11:06;6.60;;;2.38;;
47153;SDS011;32907;41.412;2.164;2022-10-16T16:13:36;6.95;;;2.28;;
47153;SDS011;32907;41.412;2.164;2022-10-16T16:16:08;6.22;;;2.50;;
47153;SDS011;32907;41.412;2.164;2022-10-16T16:18:37;5.60;;;2.47;;
47153;SDS011;32907;41.412;2.164;2022-10-16T16:21:05;6.10;;;2.45;;
47153;SDS011;32907;41.412;2.164;2022-10-16T16:23:34;6.15;;;2.25;;
47153;SDS011;32907;41.412;2.164;2022-10-16T16:28:38;6.68;;;2.65;;
47153;SDS011;32907;41.412;2.164;2022-10-16T16:31:06;6.22;;;2.50;;
47153;SDS011;32907;41.412;2.164;2022-10-16T16:33:34;5.88;;;2.70;;
47153;SDS011;32907;41.412;2.164;2022-10-16T16:36:03;6.28;;;2.80;;
47153;SDS011;32907;41.412;2.164;2022-10-16T16:38:40;5.10;;;2.45;;
47153;SDS011;32907;41.412;2.164;2022-10-16T16:41:12;5.57;;;2.50;;
47153;SDS011;32907;41.412;2.164;2022-10-16T16:43:40;7.10;;;2.92;;
47153;SDS011;32907;41.412;2.164;2022-10-16T16:46:08;7.93;;;3.47;;
47153;SDS011;32907;41.412;2.164;2022-10-16T16:48:37;7.82;;;2.90;;
47153;SDS011;32907;41.412;2.164;2022-10-16T16:51:06;6.60;;;2.80;;
47153;SDS011;32907;41.412;2.164;2022-10-16T16:53:46;5.88;;;3.20;;
47153;SDS011;32907;41.412;2.164;2022-10-16T16:56:16;7.32;;;3.22;;
47153;SDS011;32907;41.412;2.164;2022-10-16T16:58:51;4.63;;;2.72;;
47153;SDS011;32907;41.412;2.164;2022-10-16T17:03:50;7.25;;;3.60;;
47153;SDS011;32907;41.412;2.164;2022-10-16T17:06:20;8.32;;;4.65;;
47153;SDS011;32907;41.412;2.164;2022-10-16T17:08:50;6.70;;;4.60;;
47153;SDS011;32907;41.412;2.164;2022-10-16T17:11:21;10.68;;;5.35;;
47153;SDS011;32907;41.412;2.164;2022-10-16T17:13:52;11.45;;;6.20;;
47153;SDS011;32907;41.412;2.164;2022-10-16T17:16:28;15.25;;;6.47;;
47153;SDS011;32907;41.412;2.164;2022-10-16T17:19:02;23.10;;;8.30;;
47153;SDS011;32907;41.412;2.164;2022-10-16T17:21:32;22.30;;;8.82;;
47153;SDS011;32907;41.412;2.164;2022-10-16T17:24:00;15.60;;;7.60;;
47153;SDS011;32907;41.412;2.164;2022-10-16T17:26:29;17.92;;;7.20;;
47153;SDS011;32907;41.412;2.164;2022-10-16T17:28:58;13.10;;;5.90;;
47153;SDS011;32907;41.412;2.164;2022-10-16T17:31:29;10.45;;;6.35;;